NORTHEAST SUFFOLK  -  Frost Advisory Frost Advisory        NORTHWEST SUFFOLK  -  Frost Advisory Frost Advisory        SOUTHEAST SUFFOLK  -  Frost Advisory Frost Advisory        SOUTHWEST SUFFOLK  -  Frost Advisory Frost Advisory      

Active alerts

Northwest Suffolk
  Details for Northwest Suffolk Frost Advisory
Southwest Suffolk
  Details for Southwest Suffolk Frost Advisory
Northeast Suffolk
  Details for Northeast Suffolk Frost Advisory
Southeast Suffolk
  Details for Southeast Suffolk Frost Advisory


WXM80 ListenWXM80 Stop

You find our weather info also at:

UK Metoffice

WeatherCloud

Weather Underground

Northeastern Weather Network

AWEKAS

Citizen Weather Observer Program (CWOP)

HAMweather, WeatherForYou, PWS Weather


Weather Underground History page Text

Daily Summary for March 26, 2016 Units:  English    Metric   Both
« Previous Day
Next Day »
Daily Weekly Monthly Yearly Custom
  High: Low: Average:
Temperature: 48.3 °F 37.2 °F 42.8 °F
Dew Point: 38.7 °F 30.2 °F 35 °F
Humidity: 86 % 63 % 74 %
Wind Speed: 10.2 mph 0.0 mph 4.9 mph
Wind Gust: 17.0 mph - -
Wind:- - ESE
Pressure: 30.40 in 30.03 in -
Precipitation: 0.00 in    
Historical Graphs
 
 
Tabular Data for March 26, 2016
Time Temperature Dew Point Pressure Wind Wind Speed Wind Gust Humidity Rainfall Rate (Hourly)
00:02 43.5 °F 36.8 °F 30.03 in North 4.8 mph 8.1 mph 77 % 0.00 in
00:08 43.4 °F 36.7 °F 30.03 in NE 7.2 mph 8.1 mph 77 % 0.00 in
00:18 43.1 °F 36.0 °F 30.04 in NNW 6.4 mph 9.2 mph 76 % 0.00 in
00:23 42.9 °F 35.9 °F 30.04 in NE 4.9 mph 6.9 mph 76 % 0.00 in
00:28 42.8 °F 35.8 °F 30.04 in NNE 6.4 mph 11.5 mph 76 % 0.00 in
00:33 42.6 °F 35.9 °F 30.05 in NNE 7.1 mph 9.0 mph 77 % 0.00 in
00:38 42.5 °F 35.5 °F 30.05 in North 7.8 mph 11.5 mph 76 % 0.00 in
00:43 42.4 °F 35.7 °F 30.05 in NNE 6.3 mph 10.0 mph 77 % 0.00 in
00:48 42.2 °F 35.5 °F 30.05 in NNE 4.9 mph 10.4 mph 77 % 0.00 in
00:53 42.1 °F 35.7 °F 30.05 in NNE 5.6 mph 8.1 mph 78 % 0.00 in
00:59 41.9 °F 35.2 °F 30.06 in NNE 7.5 mph 12.7 mph 77 % 0.00 in
01:04 41.7 °F 34.7 °F 30.06 in NNW 6.8 mph 10.4 mph 76 % 0.00 in
01:14 41.3 °F 34.3 °F 30.06 in North 5.1 mph 7.0 mph 76 % 0.00 in
01:19 41.2 °F 34.5 °F 30.07 in North 7.3 mph 11.5 mph 77 % 0.00 in
01:24 40.9 °F 33.9 °F 30.07 in NNE 7.8 mph 11.5 mph 76 % 0.00 in
01:29 40.8 °F 33.8 °F 30.07 in North 8.1 mph 12.0 mph 76 % 0.00 in
01:39 40.4 °F 33.8 °F 30.08 in NE 8.7 mph 11.5 mph 77 % 0.00 in
01:44 40.2 °F 33.2 °F 30.08 in NE 10.2 mph 17.0 mph 76 % 0.00 in
01:50 39.9 °F 32.9 °F 30.08 in NNE 9.5 mph 13.8 mph 76 % 0.00 in
01:55 39.6 °F 32.3 °F 30.09 in NNW 8.0 mph 15.0 mph 75 % 0.00 in
02:00 39.5 °F 32.6 °F 30.09 in North 9.0 mph 12.0 mph 76 % 0.00 in
02:05 39.3 °F 32.4 °F 30.09 in NNE 8.6 mph 12.7 mph 76 % 0.00 in
02:10 39.1 °F 31.8 °F 30.09 in NNE 8.6 mph 13.8 mph 75 % 0.00 in
02:15 39.0 °F 32.1 °F 30.10 in NNE 7.1 mph 9.2 mph 76 % 0.00 in
02:20 38.9 °F 31.6 °F 30.10 in NE 7.9 mph 11.5 mph 75 % 0.00 in
02:25 38.8 °F 31.6 °F 30.10 in NE 7.8 mph 11.5 mph 75 % 0.00 in
02:30 38.7 °F 31.5 °F 30.11 in NNE 7.4 mph 10.4 mph 75 % 0.00 in
02:35 38.6 °F 31.4 °F 30.11 in NNE 6.4 mph 11.5 mph 75 % 0.00 in
02:41 38.4 °F 31.2 °F 30.11 in North 8.6 mph 11.5 mph 75 % 0.00 in
02:46 38.3 °F 31.1 °F 30.11 in NNE 8.3 mph 11.5 mph 75 % 0.00 in
02:51 38.2 °F 30.6 °F 30.11 in NNE 5.5 mph 12.7 mph 74 % 0.00 in
02:56 38.1 °F 30.5 °F 30.12 in NNE 7.0 mph 12.7 mph 74 % 0.00 in
03:01 38.0 °F 30.8 °F 30.12 in NNE 6.0 mph 10.4 mph 75 % 0.00 in
03:11 37.9 °F 30.4 °F 30.12 in North 5.6 mph 9.2 mph 74 % 0.00 in
03:16 37.8 °F 30.6 °F 30.13 in North 8.6 mph 11.5 mph 75 % 0.00 in
03:21 37.8 °F 30.3 °F 30.13 in NNE 4.8 mph 9.2 mph 74 % 0.00 in
03:26 37.8 °F 30.3 °F 30.14 in NNE 5.9 mph 11.5 mph 74 % 0.00 in
03:32 37.7 °F 30.2 °F 30.14 in North 5.8 mph 8.1 mph 74 % 0.00 in
03:37 37.7 °F 30.5 °F 30.13 in NNE 4.6 mph 8.1 mph 75 % 0.00 in
03:52 37.6 °F 30.4 °F 30.14 in NNE 4.4 mph 8.1 mph 75 % 0.00 in
03:57 37.5 °F 30.3 °F 30.14 in NNE 5.8 mph 13.8 mph 75 % 0.00 in
04:02 37.5 °F 30.3 °F 30.14 in NNW 5.7 mph 11.5 mph 75 % 0.00 in
04:07 37.5 °F 30.3 °F 30.14 in NNW 4.9 mph 8.1 mph 75 % 0.00 in
04:17 37.5 °F 30.3 °F 30.15 in North 7.0 mph 12.0 mph 75 % 0.00 in
04:23 37.4 °F 30.2 °F 30.15 in NNW 8.3 mph 10.4 mph 75 % 0.00 in
04:28 37.4 °F 30.2 °F 30.15 in NNE 6.0 mph 12.0 mph 75 % 0.00 in
04:33 37.4 °F 30.2 °F 30.15 in NNW 8.1 mph 10.4 mph 75 % 0.00 in
04:38 37.4 °F 30.2 °F 30.16 in NNW 6.9 mph 10.4 mph 75 % 0.00 in
04:43 37.4 °F 30.5 °F 30.16 in North 7.2 mph 11.5 mph 76 % 0.00 in
04:48 37.4 °F 30.5 °F 30.16 in North 4.7 mph 10.4 mph 76 % 0.00 in
04:53 37.4 °F 30.5 °F 30.16 in North 4.9 mph 8.1 mph 76 % 0.00 in
04:58 37.3 °F 30.4 °F 30.16 in North 4.0 mph 7.0 mph 76 % 0.00 in
05:03 37.3 °F 30.4 °F 30.16 in NNE 6.6 mph 11.5 mph 76 % 0.00 in
05:08 37.3 °F 30.7 °F 30.16 in North 5.3 mph 6.9 mph 77 % 0.00 in
05:14 37.3 °F 30.4 °F 30.17 in NW 6.4 mph 10.4 mph 76 % 0.00 in
05:19 37.3 °F 30.7 °F 30.17 in NNE 6.3 mph 10.4 mph 77 % 0.00 in
05:24 37.3 °F 30.4 °F 30.17 in NNE 4.9 mph 8.1 mph 76 % 0.00 in
05:29 37.3 °F 30.7 °F 30.18 in North 5.8 mph 10.4 mph 77 % 0.00 in
05:34 37.3 °F 30.7 °F 30.18 in North 4.0 mph 6.0 mph 77 % 0.00 in
05:39 37.2 °F 30.7 °F 30.19 in North 6.3 mph 9.2 mph 77 % 0.00 in
05:44 37.2 °F 30.7 °F 30.19 in North 5.4 mph 7.0 mph 77 % 0.00 in
05:49 37.2 °F 30.7 °F 30.19 in NE 6.3 mph 9.2 mph 77 % 0.00 in
05:54 37.2 °F 30.7 °F 30.19 in North 5.6 mph 9.2 mph 77 % 0.00 in
05:59 37.2 °F 30.7 °F 30.19 in North 6.2 mph 8.1 mph 77 % 0.00 in
06:05 37.2 °F 31.0 °F 30.19 in NNE 4.5 mph 10.4 mph 78 % 0.00 in
06:10 37.2 °F 31.0 °F 30.19 in NNE 6.0 mph 8.1 mph 78 % 0.00 in
06:15 37.3 °F 31.1 °F 30.19 in North 3.7 mph 9.0 mph 78 % 0.00 in
06:20 37.3 °F 31.1 °F 30.19 in NE 8.5 mph 11.5 mph 78 % 0.00 in
06:25 37.3 °F 31.1 °F 30.20 in NW 5.2 mph 9.2 mph 78 % 0.00 in
06:30 37.4 °F 31.2 °F 30.20 in NNE 6.6 mph 9.0 mph 78 % 0.00 in
06:35 37.4 °F 31.2 °F 30.21 in NNE 7.5 mph 11.0 mph 78 % 0.00 in
06:40 37.5 °F 30.9 °F 30.21 in NNW 6.0 mph 12.0 mph 77 % 0.00 in
06:45 37.5 °F 31.3 °F 30.21 in NNE 7.2 mph 9.2 mph 78 % 0.00 in
06:51 37.5 °F 31.3 °F 30.21 in NNE 3.8 mph 6.9 mph 78 % 0.00 in
06:56 37.5 °F 31.3 °F 30.22 in NNE 5.5 mph 9.2 mph 78 % 0.00 in
07:01 37.5 °F 31.3 °F 30.22 in North 4.2 mph 6.9 mph 78 % 0.00 in
07:06 37.5 °F 31.3 °F 30.23 in NE 4.7 mph 6.9 mph 78 % 0.00 in
07:11 37.5 °F 31.3 °F 30.23 in NNW 3.6 mph 5.0 mph 78 % 0.00 in
07:16 37.6 °F 31.4 °F 30.23 in North 4.1 mph 6.0 mph 78 % 0.00 in
07:26 37.7 °F 31.5 °F 30.24 in NNW 3.1 mph 10.4 mph 78 % 0.00 in
07:31 37.8 °F 31.6 °F 30.24 in NNW 6.7 mph 9.2 mph 78 % 0.00 in
07:36 38.0 °F 31.7 °F 30.24 in North 5.4 mph 8.1 mph 78 % 0.00 in
07:42 38.3 °F 32.4 °F 30.25 in NE 3.7 mph 5.0 mph 79 % 0.00 in
07:47 38.7 °F 32.4 °F 30.25 in NNE 7.2 mph 9.0 mph 78 % 0.00 in
07:52 38.9 °F 32.0 °F 30.25 in NW 7.0 mph 9.2 mph 76 % 0.00 in
07:57 39.0 °F 32.1 °F 30.25 in NNE 6.5 mph 10.4 mph 76 % 0.00 in
08:02 39.2 °F 32.6 °F 30.25 in NNE 5.9 mph 10.4 mph 77 % 0.00 in
08:07 39.4 °F 32.8 °F 30.25 in NNW 3.8 mph 6.9 mph 77 % 0.00 in
08:12 39.7 °F 33.1 °F 30.25 in North 4.2 mph 5.8 mph 77 % 0.00 in
08:17 39.9 °F 32.9 °F 30.25 in North 2.6 mph 6.0 mph 76 % 0.00 in
08:22 40.2 °F 32.9 °F 30.25 in North 4.4 mph 9.2 mph 75 % 0.00 in
08:27 40.6 °F 33.3 °F 30.26 in NNW 4.2 mph 5.8 mph 75 % 0.00 in
08:33 40.9 °F 33.2 °F 30.26 in North 3.4 mph 6.9 mph 74 % 0.00 in
08:38 41.2 °F 33.5 °F 30.26 in North 6.2 mph 7.0 mph 74 % 0.00 in
08:43 41.5 °F 33.8 °F 30.26 in NNE 4.9 mph 8.1 mph 74 % 0.00 in
08:48 41.8 °F 33.8 °F 30.26 in NNE 4.9 mph 9.2 mph 73 % 0.00 in
08:53 42.0 °F 33.3 °F 30.26 in NNE 2.8 mph 8.1 mph 71 % 0.00 in
08:58 42.3 °F 33.9 °F 30.26 in NNE 6.6 mph 10.4 mph 72 % 0.00 in
09:03 42.6 °F 34.2 °F 30.26 in North 6.2 mph 9.2 mph 72 % 0.00 in
09:08 42.8 °F 34.0 °F 30.26 in NNE 5.6 mph 10.4 mph 71 % 0.00 in
09:13 42.9 °F 34.1 °F 30.26 in ENE 5.1 mph 8.1 mph 71 % 0.00 in
09:24 43.2 °F 34.4 °F 30.27 in NNE 3.5 mph 4.6 mph 71 % 0.00 in
09:29 43.3 °F 34.2 °F 30.28 in ENE 2.8 mph 5.0 mph 70 % 0.00 in
09:39 43.3 °F 34.2 °F 30.28 in NNE 4.8 mph 6.0 mph 70 % 0.00 in
09:44 43.4 °F 33.9 °F 30.28 in ENE 3.3 mph 5.0 mph 69 % 0.00 in
09:49 43.5 °F 34.7 °F 30.28 in ENE 4.7 mph 6.9 mph 71 % 0.00 in
09:54 43.5 °F 34.4 °F 30.29 in ENE 2.9 mph 5.8 mph 70 % 0.00 in
09:59 43.7 °F 34.6 °F 30.29 in North 3.7 mph 5.8 mph 70 % 0.00 in
10:04 43.7 °F 34.2 °F 30.29 in NNE 4.1 mph 8.1 mph 69 % 0.00 in
10:09 44.0 °F 34.8 °F 30.30 in NNE 4.1 mph 5.0 mph 70 % 0.00 in
10:15 44.3 °F 35.1 °F 30.29 in ENE 5.3 mph 7.0 mph 70 % 0.00 in
10:20 44.5 °F 35.3 °F 30.29 in NNE 3.4 mph 6.9 mph 70 % 0.00 in
10:25 44.5 °F 35.0 °F 30.29 in NNE 2.6 mph 8.1 mph 69 % 0.00 in
10:30 44.5 °F 34.2 °F 30.30 in ENE 6.9 mph 10.4 mph 67 % 0.00 in
10:35 44.4 °F 34.9 °F 30.30 in NE 4.5 mph 6.9 mph 69 % 0.00 in
10:40 44.3 °F 34.4 °F 30.31 in East 5.7 mph 9.2 mph 68 % 0.00 in
10:45 44.3 °F 34.8 °F 30.31 in ENE 6.4 mph 8.1 mph 69 % 0.00 in
10:50 44.4 °F 34.9 °F 30.31 in ENE 2.7 mph 8.1 mph 69 % 0.00 in
10:55 44.7 °F 35.1 °F 30.31 in East 4.4 mph 6.0 mph 69 % 0.00 in
11:00 45.0 °F 35.4 °F 30.31 in ENE 6.5 mph 8.1 mph 69 % 0.00 in
11:06 45.1 °F 35.9 °F 30.31 in NE 2.7 mph 3.5 mph 70 % 0.00 in
11:11 45.1 °F 35.2 °F 30.32 in NE 4.3 mph 7.0 mph 68 % 0.00 in
11:16 45.4 °F 35.1 °F 30.32 in ENE 4.3 mph 8.1 mph 67 % 0.00 in
11:21 45.4 °F 35.5 °F 30.32 in ENE 4.9 mph 8.1 mph 68 % 0.00 in
11:26 45.4 °F 35.1 °F 30.32 in NE 2.5 mph 6.0 mph 67 % 0.00 in
11:31 45.5 °F 35.5 °F 30.32 in NE 4.3 mph 5.0 mph 68 % 0.00 in
11:36 45.4 °F 35.5 °F 30.32 in ESE 2.7 mph 5.0 mph 68 % 0.00 in
11:41 45.5 °F 35.9 °F 30.32 in ENE 4.8 mph 7.0 mph 69 % 0.00 in
11:46 45.4 °F 35.5 °F 30.32 in East 5.8 mph 9.2 mph 68 % 0.00 in
11:51 45.6 °F 36.0 °F 30.32 in ENE 7.0 mph 9.2 mph 69 % 0.00 in
11:57 45.7 °F 35.4 °F 30.32 in ENE 7.1 mph 11.5 mph 67 % 0.00 in
12:02 45.7 °F 35.4 °F 30.32 in East 6.3 mph 10.4 mph 67 % 0.00 in
12:07 45.9 °F 35.6 °F 30.32 in East 6.6 mph 9.2 mph 67 % 0.00 in
12:12 46.1 °F 35.7 °F 30.32 in ENE 6.6 mph 10.0 mph 67 % 0.00 in
12:17 46.2 °F 35.8 °F 30.32 in ENE 5.9 mph 8.1 mph 67 % 0.00 in
12:22 46.4 °F 36.0 °F 30.32 in East 7.2 mph 9.2 mph 67 % 0.00 in
12:27 46.4 °F 35.7 °F 30.32 in East 6.1 mph 9.2 mph 66 % 0.00 in
12:32 46.6 °F 35.5 °F 30.32 in East 5.4 mph 8.1 mph 65 % 0.00 in
12:37 47.0 °F 36.2 °F 30.32 in East 5.1 mph 8.1 mph 66 % 0.00 in
12:42 47.3 °F 36.1 °F 30.32 in East 7.2 mph 8.1 mph 65 % 0.00 in
12:48 47.4 °F 36.2 °F 30.33 in ENE 6.2 mph 10.4 mph 65 % 0.00 in
12:53 47.2 °F 36.0 °F 30.32 in ENE 4.9 mph 8.1 mph 65 % 0.00 in
12:58 47.1 °F 36.3 °F 30.33 in East 5.7 mph 7.0 mph 66 % 0.00 in
13:03 47.5 °F 36.7 °F 30.33 in East 6.4 mph 8.1 mph 66 % 0.00 in
13:13 47.9 °F 36.3 °F 30.33 in East 5.3 mph 9.2 mph 64 % 0.00 in
13:18 47.8 °F 36.6 °F 30.33 in ENE 5.0 mph 8.1 mph 65 % 0.00 in
13:23 47.7 °F 36.1 °F 30.32 in East 5.5 mph 10.4 mph 64 % 0.00 in
13:28 47.2 °F 35.2 °F 30.32 in East 8.4 mph 11.5 mph 63 % 0.00 in
13:33 46.9 °F 36.5 °F 30.32 in ENE 5.6 mph 9.2 mph 67 % 0.00 in
13:39 47.3 °F 35.7 °F 30.32 in ENE 7.2 mph 11.5 mph 64 % 0.00 in
13:44 47.0 °F 35.8 °F 30.32 in East 6.8 mph 11.5 mph 65 % 0.00 in
13:49 47.2 °F 36.4 °F 30.32 in ENE 7.6 mph 10.4 mph 66 % 0.00 in
13:54 47.1 °F 36.7 °F 30.32 in ENE 6.0 mph 8.1 mph 67 % 0.00 in
13:59 46.9 °F 35.4 °F 30.32 in ENE 6.9 mph 10.4 mph 64 % 0.00 in
14:04 47.3 °F 36.5 °F 30.31 in ENE 5.4 mph 7.0 mph 66 % 0.00 in
14:09 47.3 °F 36.9 °F 30.31 in East 6.5 mph 8.1 mph 67 % 0.00 in
14:14 47.6 °F 37.6 °F 30.31 in ENE 5.9 mph 8.1 mph 68 % 0.00 in
14:19 47.4 °F 35.8 °F 30.31 in East 5.6 mph 10.4 mph 64 % 0.00 in
14:24 47.5 °F 35.5 °F 30.31 in ENE 5.5 mph 8.1 mph 63 % 0.00 in
14:30 47.8 °F 36.6 °F 30.30 in ENE 6.5 mph 9.2 mph 65 % 0.00 in
14:35 47.8 °F 37.0 °F 30.30 in East 6.8 mph 9.2 mph 66 % 0.00 in
14:40 47.7 °F 36.1 °F 30.30 in ENE 5.4 mph 9.2 mph 64 % 0.00 in
14:45 47.6 °F 36.4 °F 30.30 in East 7.5 mph 10.4 mph 65 % 0.00 in
14:50 47.6 °F 36.0 °F 30.30 in ENE 5.8 mph 9.2 mph 64 % 0.00 in
14:55 47.7 °F 36.5 °F 30.29 in ENE 6.1 mph 8.1 mph 65 % 0.00 in
15:00 48.0 °F 36.4 °F 30.30 in East 5.2 mph 8.1 mph 64 % 0.00 in
15:05 48.1 °F 36.5 °F 30.29 in ENE 6.7 mph 9.2 mph 64 % 0.00 in
15:10 48.1 °F 36.5 °F 30.30 in East 6.9 mph 10.4 mph 64 % 0.00 in
15:15 47.8 °F 35.8 °F 30.29 in ENE 8.2 mph 11.5 mph 63 % 0.00 in
15:21 47.5 °F 36.3 °F 30.29 in ENE 4.8 mph 8.1 mph 65 % 0.00 in
15:26 47.3 °F 35.3 °F 30.30 in ENE 7.8 mph 10.4 mph 63 % 0.00 in
15:31 47.1 °F 35.9 °F 30.30 in ENE 6.1 mph 8.1 mph 65 % 0.00 in
15:36 47.3 °F 36.9 °F 30.30 in ENE 4.6 mph 5.8 mph 67 % 0.00 in
15:41 47.6 °F 36.8 °F 30.30 in East 4.6 mph 8.1 mph 66 % 0.00 in
15:46 47.4 °F 36.2 °F 30.30 in East 5.9 mph 8.1 mph 65 % 0.00 in
15:51 47.4 °F 37.0 °F 30.30 in East 4.4 mph 6.9 mph 67 % 0.00 in
15:56 47.5 °F 37.1 °F 30.31 in ENE 3.9 mph 5.8 mph 67 % 0.00 in
16:01 47.7 °F 36.9 °F 30.31 in ENE 2.8 mph 3.5 mph 66 % 0.00 in
16:06 48.1 °F 37.3 °F 30.31 in ENE 5.4 mph 8.0 mph 66 % 0.00 in
16:12 48.0 °F 37.2 °F 30.30 in NE 6.5 mph 8.1 mph 66 % 0.00 in
16:17 48.0 °F 37.2 °F 30.31 in ENE 4.1 mph 6.9 mph 66 % 0.00 in
16:22 47.9 °F 36.3 °F 30.31 in ENE 6.8 mph 8.1 mph 64 % 0.00 in
16:27 47.7 °F 36.5 °F 30.31 in ENE 3.8 mph 6.9 mph 65 % 0.00 in
16:32 47.7 °F 36.5 °F 30.31 in ENE 5.8 mph 8.1 mph 65 % 0.00 in
16:37 47.5 °F 36.3 °F 30.31 in ENE 3.8 mph 6.9 mph 65 % 0.00 in
16:42 47.5 °F 36.3 °F 30.31 in ENE 2.5 mph 3.5 mph 65 % 0.00 in
16:47 47.8 °F 37.0 °F 30.31 in ENE 2.7 mph 3.5 mph 66 % 0.00 in
16:52 48.0 °F 37.2 °F 30.31 in ENE 3.1 mph 3.5 mph 66 % 0.00 in
16:57 48.1 °F 36.9 °F 30.32 in ENE 3.4 mph 4.0 mph 65 % 0.00 in
17:03 48.2 °F 37.0 °F 30.31 in NE 4.1 mph 8.1 mph 65 % 0.00 in
17:08 48.1 °F 36.9 °F 30.32 in NE 5.3 mph 6.9 mph 65 % 0.00 in
17:13 48.0 °F 36.4 °F 30.31 in ENE 4.3 mph 6.9 mph 64 % 0.00 in
17:18 48.0 °F 36.8 °F 30.31 in East 4.2 mph 5.8 mph 65 % 0.00 in
17:23 48.2 °F 38.1 °F 30.32 in SE 7.8 mph 11.5 mph 68 % 0.00 in
17:28 48.3 °F 38.2 °F 30.32 in SE 5.2 mph 9.2 mph 68 % 0.00 in
17:33 48.3 °F 38.6 °F 30.32 in SSE 5.8 mph 10.4 mph 69 % 0.00 in
17:38 48.1 °F 38.4 °F 30.32 in SSE 6.7 mph 9.2 mph 69 % 0.00 in
17:43 48.0 °F 38.7 °F 30.33 in ESE 2.8 mph 7.0 mph 70 % 0.00 in
17:48 47.7 °F 38.4 °F 30.33 in SSE 6.0 mph 10.0 mph 70 % 0.00 in
17:54 47.3 °F 38.0 °F 30.33 in SSE 3.6 mph 9.2 mph 70 % 0.00 in
17:59 47.0 °F 38.1 °F 30.33 in SSE 3.4 mph 6.0 mph 71 % 0.00 in
18:04 47.0 °F 38.4 °F 30.34 in SSE 6.0 mph 11.5 mph 72 % 0.00 in
18:09 46.9 °F 38.3 °F 30.34 in SSE 1.1 mph 3.5 mph 72 % 0.00 in
18:14 46.7 °F 38.1 °F 30.34 in South 5.4 mph 9.2 mph 72 % 0.00 in
18:19 46.6 °F 38.4 °F 30.34 in SE 3.7 mph 5.8 mph 73 % 0.00 in
18:24 46.4 °F 38.2 °F 30.33 in SSE 5.5 mph 9.2 mph 73 % 0.00 in
18:29 46.1 °F 38.3 °F 30.34 in SSE 4.1 mph 6.0 mph 74 % 0.00 in
18:34 46.0 °F 38.2 °F 30.35 in South 2.4 mph 5.8 mph 74 % 0.00 in
18:39 45.8 °F 38.3 °F 30.35 in SSE 4.5 mph 5.0 mph 75 % 0.00 in
18:45 45.5 °F 38.0 °F 30.34 in SSE 1.3 mph 6.9 mph 75 % 0.00 in
18:50 45.4 °F 38.3 °F 30.34 in SE 3.1 mph 4.6 mph 76 % 0.00 in
18:55 45.2 °F 38.1 °F 30.35 in SE 2.8 mph 5.8 mph 76 % 0.00 in
19:00 45.0 °F 37.9 °F 30.35 in SSE 1.0 mph 3.5 mph 76 % 0.00 in
19:05 44.8 °F 38.0 °F 30.35 in SSE 3.1 mph 4.6 mph 77 % 0.00 in
19:10 44.5 °F 37.7 °F 30.35 in SSE 2.8 mph 6.0 mph 77 % 0.00 in
19:15 44.3 °F 37.5 °F 30.34 in SSE 2.6 mph 5.8 mph 77 % 0.00 in
19:20 44.1 °F 37.7 °F 30.34 in SE 4.8 mph 5.8 mph 78 % 0.00 in
19:25 43.9 °F 37.5 °F 30.35 in SSE 4.0 mph 6.9 mph 78 % 0.00 in
19:30 43.7 °F 37.3 °F 30.35 in South 2.2 mph 3.5 mph 78 % 0.00 in
19:36 43.5 °F 37.4 °F 30.35 in SSE 6.6 mph 11.5 mph 79 % 0.00 in
19:41 43.3 °F 37.2 °F 30.35 in SE 3.7 mph 6.9 mph 79 % 0.00 in
19:46 43.2 °F 37.4 °F 30.35 in SE 3.0 mph 5.8 mph 80 % 0.00 in
19:51 43.0 °F 37.3 °F 30.35 in SE 4.3 mph 6.9 mph 80 % 0.00 in
19:56 42.9 °F 37.2 °F 30.36 in SSE 5.3 mph 8.1 mph 80 % 0.00 in
20:01 42.8 °F 37.4 °F 30.36 in SSE 2.8 mph 4.6 mph 81 % 0.00 in
20:11 42.5 °F 37.4 °F 30.35 in SSE 2.1 mph 4.6 mph 82 % 0.00 in
20:16 42.4 °F 37.3 °F 30.35 in ESE 2.7 mph 5.8 mph 82 % 0.00 in
20:22 42.4 °F 37.3 °F 30.35 in South 6.0 mph 6.9 mph 82 % 0.00 in
20:27 42.2 °F 37.4 °F 30.35 in SSE 5.3 mph 8.1 mph 83 % 0.00 in
20:32 42.2 °F 37.4 °F 30.36 in South 3.3 mph 6.0 mph 83 % 0.00 in
20:37 42.1 °F 37.3 °F 30.36 in SSE 3.0 mph 5.0 mph 83 % 0.00 in
20:42 42.1 °F 37.3 °F 30.36 in SSE 3.9 mph 4.6 mph 83 % 0.00 in
20:47 42.0 °F 37.5 °F 30.36 in SSE 3.7 mph 4.6 mph 84 % 0.00 in
20:52 42.0 °F 37.5 °F 30.36 in SSE 4.8 mph 9.2 mph 84 % 0.00 in
20:57 41.9 °F 37.4 °F 30.37 in SSE 2.5 mph 7.0 mph 84 % 0.00 in
21:02 41.9 °F 37.4 °F 30.37 in SSE 3.8 mph 5.0 mph 84 % 0.00 in
21:07 41.9 °F 37.7 °F 30.38 in SSE 2.9 mph 6.0 mph 85 % 0.00 in
21:13 41.8 °F 37.6 °F 30.38 in SSE 3.6 mph 8.0 mph 85 % 0.00 in
21:18 41.8 °F 37.6 °F 30.38 in SSE 1.5 mph 4.6 mph 85 % 0.00 in
21:23 41.8 °F 37.6 °F 30.38 in SSE 2.8 mph 5.8 mph 85 % 0.00 in
21:33 41.7 °F 37.5 °F 30.38 in SSE 5.6 mph 9.2 mph 85 % 0.00 in
21:38 41.7 °F 37.5 °F 30.38 in South 2.3 mph 5.0 mph 85 % 0.00 in
21:43 41.7 °F 37.5 °F 30.38 in SSE 4.8 mph 11.5 mph 85 % 0.00 in
21:48 41.7 °F 37.5 °F 30.39 in ESE 4.6 mph 9.0 mph 85 % 0.00 in
21:53 41.7 °F 37.5 °F 30.39 in South 0.7 mph 4.6 mph 85 % 0.00 in
21:58 41.7 °F 37.5 °F 30.38 in SE 1.9 mph 4.6 mph 85 % 0.00 in
22:04 41.7 °F 37.5 °F 30.39 in SSE 1.1 mph 6.9 mph 85 % 0.00 in
22:14 41.6 °F 37.4 °F 30.38 in ESE 0.4 mph 1.2 mph 85 % 0.00 in
22:19 41.5 °F 37.3 °F 30.39 in SSE 1.8 mph 5.8 mph 85 % 0.00 in
22:24 41.5 °F 37.3 °F 30.39 in SSE 0.2 mph 1.2 mph 85 % 0.00 in
22:29 41.5 °F 37.3 °F 30.39 in Calm     85 % 0.00 in
22:34 41.4 °F 37.2 °F 30.39 in Calm     85 % 0.00 in
22:39 41.3 °F 37.1 °F 30.39 in Calm     85 % 0.00 in
22:44 41.3 °F 37.1 °F 30.39 in Calm   1.0 mph 85 % 0.00 in
22:49 41.3 °F 37.4 °F 30.39 in Calm   2.3 mph 86 % 0.00 in
22:55 41.3 °F 37.4 °F 30.39 in SSE 0.3 mph 1.0 mph 86 % 0.00 in
23:00 41.4 °F 37.5 °F 30.39 in SE 1.5 mph 3.5 mph 86 % 0.00 in
23:05 41.5 °F 37.6 °F 30.40 in SE 1.4 mph 3.5 mph 86 % 0.00 in
23:10 41.6 °F 37.7 °F 30.39 in Calm   1.2 mph 86 % 0.00 in
23:15 41.7 °F 37.8 °F 30.40 in East 0.1 mph 1.2 mph 86 % 0.00 in
23:20 41.8 °F 37.9 °F 30.39 in Calm   1.2 mph 86 % 0.00 in
23:25 41.9 °F 38.0 °F 30.39 in Calm     86 % 0.00 in
23:30 42.0 °F 38.1 °F 30.39 in SE 0.1 mph 1.2 mph 86 % 0.00 in
23:35 42.0 °F 37.8 °F 30.39 in SE 0.3 mph 3.0 mph 85 % 0.00 in
23:40 42.0 °F 37.8 °F 30.39 in SE 2.3 mph 3.0 mph 85 % 0.00 in
23:46 42.2 °F 38.0 °F 30.38 in SSE 0.2 mph 1.2 mph 85 % 0.00 in
23:51 42.2 °F 38.0 °F 30.38 in ESE 0.6 mph 3.5 mph 85 % 0.00 in
23:56 42.3 °F 37.8 °F 30.38 in East 0.8 mph 2.3 mph 84 % 0.00 in
Crab Meadow Weather
Compliments of Weather Underground - 2.75 mb

Script developed by  Jim McMurry - jmcmurry@mwt.net Adapted for the template by  Wim van der Kuil - Leuven-Template.eu

Weather Terms: Wind Chill Advisory - Dangerous wind chills of -20°F to -30°F.